sensor_id;sensor_type;location;lat;lon;timestamp;temperature;humidity
18593;DHT22;9426;54.118;17.948;2022-10-22T00:04:54;7.80;99.90
18593;DHT22;9426;54.118;17.948;2022-10-22T00:10:18;7.80;99.90
18593;DHT22;9426;54.118;17.948;2022-10-22T00:15:43;7.80;99.90
18593;DHT22;9426;54.118;17.948;2022-10-22T00:21:06;7.70;99.90
18593;DHT22;9426;54.118;17.948;2022-10-22T00:26:30;7.70;99.90
18593;DHT22;9426;54.118;17.948;2022-10-22T00:31:55;7.70;99.90
18593;DHT22;9426;54.118;17.948;2022-10-22T00:37:18;7.70;99.90
18593;DHT22;9426;54.118;17.948;2022-10-22T00:42:41;7.70;99.90
18593;DHT22;9426;54.118;17.948;2022-10-22T00:48:08;7.60;99.90
18593;DHT22;9426;54.118;17.948;2022-10-22T00:53:35;7.60;99.90
18593;DHT22;9426;54.118;17.948;2022-10-22T00:59:01;7.60;99.90
18593;DHT22;9426;54.118;17.948;2022-10-22T01:04:26;7.60;99.90
18593;DHT22;9426;54.118;17.948;2022-10-22T01:09:58;7.60;99.90
18593;DHT22;9426;54.118;17.948;2022-10-22T01:15:30;7.60;99.90
18593;DHT22;9426;54.118;17.948;2022-10-22T01:21:07;7.60;99.90
18593;DHT22;9426;54.118;17.948;2022-10-22T01:26:41;7.60;99.90
18593;DHT22;9426;54.118;17.948;2022-10-22T01:32:14;7.60;99.90
18593;DHT22;9426;54.118;17.948;2022-10-22T01:37:42;7.60;99.90
18593;DHT22;9426;54.118;17.948;2022-10-22T01:43:08;7.50;99.90
18593;DHT22;9426;54.118;17.948;2022-10-22T01:48:41;7.50;99.90
18593;DHT22;9426;54.118;17.948;2022-10-22T01:54:16;7.50;99.90
18593;DHT22;9426;54.118;17.948;2022-10-22T01:59:47;7.40;99.90
18593;DHT22;9426;54.118;17.948;2022-10-22T02:05:18;7.40;99.90
18593;DHT22;9426;54.118;17.948;2022-10-22T02:10:45;7.40;99.90
18593;DHT22;9426;54.118;17.948;2022-10-22T02:16:18;7.30;99.90
18593;DHT22;9426;54.118;17.948;2022-10-22T02:21:45;7.30;99.90
18593;DHT22;9426;54.118;17.948;2022-10-22T02:27:11;7.30;99.90
18593;DHT22;9426;54.118;17.948;2022-10-22T02:32:42;7.30;99.90
18593;DHT22;9426;54.118;17.948;2022-10-22T02:38:08;7.30;99.90
18593;DHT22;9426;54.118;17.948;2022-10-22T02:43:40;7.30;99.90
18593;DHT22;9426;54.118;17.948;2022-10-22T02:49:05;7.30;99.90
18593;DHT22;9426;54.118;17.948;2022-10-22T02:54:29;7.30;99.90
18593;DHT22;9426;54.118;17.948;2022-10-22T02:59:53;7.30;99.90
18593;DHT22;9426;54.118;17.948;2022-10-22T03:05:16;7.30;99.90
18593;DHT22;9426;54.118;17.948;2022-10-22T03:10:42;7.30;99.90
18593;DHT22;9426;54.118;17.948;2022-10-22T03:16:05;7.30;99.90
18593;DHT22;9426;54.118;17.948;2022-10-22T03:21:31;7.30;99.90
18593;DHT22;9426;54.118;17.948;2022-10-22T03:26:57;7.40;99.90
18593;DHT22;9426;54.118;17.948;2022-10-22T03:32:20;7.40;99.90
18593;DHT22;9426;54.118;17.948;2022-10-22T03:37:44;7.40;99.90
18593;DHT22;9426;54.118;17.948;2022-10-22T03:43:09;7.40;99.90
18593;DHT22;9426;54.118;17.948;2022-10-22T03:48:32;7.40;99.90
18593;DHT22;9426;54.118;17.948;2022-10-22T03:53:55;7.50;99.90
18593;DHT22;9426;54.118;17.948;2022-10-22T03:59:20;7.50;99.90
18593;DHT22;9426;54.118;17.948;2022-10-22T04:04:43;7.50;99.90
18593;DHT22;9426;54.118;17.948;2022-10-22T04:10:07;7.50;99.90
18593;DHT22;9426;54.118;17.948;2022-10-22T04:15:32;7.60;99.90
18593;DHT22;9426;54.118;17.948;2022-10-22T04:20:55;7.60;99.90
18593;DHT22;9426;54.118;17.948;2022-10-22T04:26:19;7.60;99.90
18593;DHT22;9426;54.118;17.948;2022-10-22T04:31:43;7.60;99.90
18593;DHT22;9426;54.118;17.948;2022-10-22T04:37:07;7.50;99.90
18593;DHT22;9426;54.118;17.948;2022-10-22T04:42:30;7.50;99.90
18593;DHT22;9426;54.118;17.948;2022-10-22T04:47:55;7.50;99.90
18593;DHT22;9426;54.118;17.948;2022-10-22T04:53:19;7.60;99.90
18593;DHT22;9426;54.118;17.948;2022-10-22T04:58:42;7.60;99.90
18593;DHT22;9426;54.118;17.948;2022-10-22T05:04:09;7.60;99.90
18593;DHT22;9426;54.118;17.948;2022-10-22T05:09:33;7.60;99.90
18593;DHT22;9426;54.118;17.948;2022-10-22T05:14:56;7.60;99.90
18593;DHT22;9426;54.118;17.948;2022-10-22T05:20:21;7.60;99.90
18593;DHT22;9426;54.118;17.948;2022-10-22T05:25:44;7.70;99.90
18593;DHT22;9426;54.118;17.948;2022-10-22T05:31:09;7.60;99.90
18593;DHT22;9426;54.118;17.948;2022-10-22T05:36:34;7.70;99.90
18593;DHT22;9426;54.118;17.948;2022-10-22T05:41:57;7.70;99.90
18593;DHT22;9426;54.118;17.948;2022-10-22T05:47:20;7.60;99.90
18593;DHT22;9426;54.118;17.948;2022-10-22T05:52:45;7.60;99.90
18593;DHT22;9426;54.118;17.948;2022-10-22T05:58:09;7.60;99.90
18593;DHT22;9426;54.118;17.948;2022-10-22T06:03:34;7.60;99.90
18593;DHT22;9426;54.118;17.948;2022-10-22T06:09:04;7.70;99.90
18593;DHT22;9426;54.118;17.948;2022-10-22T06:14:28;7.70;99.90
18593;DHT22;9426;54.118;17.948;2022-10-22T06:19:53;7.70;99.90
18593;DHT22;9426;54.118;17.948;2022-10-22T06:25:17;7.80;99.90
18593;DHT22;9426;54.118;17.948;2022-10-22T06:30:41;7.90;99.90
18593;DHT22;9426;54.118;17.948;2022-10-22T06:36:05;7.90;99.90
18593;DHT22;9426;54.118;17.948;2022-10-22T06:41:30;8.00;99.90
18593;DHT22;9426;54.118;17.948;2022-10-22T06:46:54;8.00;99.90
18593;DHT22;9426;54.118;17.948;2022-10-22T06:52:18;8.00;99.90
18593;DHT22;9426;54.118;17.948;2022-10-22T06:57:43;7.90;99.90
18593;DHT22;9426;54.118;17.948;2022-10-22T07:03:06;8.00;99.90
18593;DHT22;9426;54.118;17.948;2022-10-22T07:08:31;8.00;99.90
18593;DHT22;9426;54.118;17.948;2022-10-22T07:13:58;8.20;99.90
18593;DHT22;9426;54.118;17.948;2022-10-22T07:19:21;8.20;99.90
18593;DHT22;9426;54.118;17.948;2022-10-22T07:24:45;8.30;99.90
18593;DHT22;9426;54.118;17.948;2022-10-22T07:30:10;8.40;99.90
18593;DHT22;9426;54.118;17.948;2022-10-22T07:35:35;8.70;99.90
18593;DHT22;9426;54.118;17.948;2022-10-22T07:40:59;8.90;99.90
18593;DHT22;9426;54.118;17.948;2022-10-22T07:46:25;8.80;99.90
18593;DHT22;9426;54.118;17.948;2022-10-22T07:51:48;9.10;99.90
18593;DHT22;9426;54.118;17.948;2022-10-22T07:57:12;9.20;99.90
18593;DHT22;9426;54.118;17.948;2022-10-22T08:02:36;9.00;99.90
18593;DHT22;9426;54.118;17.948;2022-10-22T08:08:00;8.90;99.90
18593;DHT22;9426;54.118;17.948;2022-10-22T08:13:26;8.90;99.90
18593;DHT22;9426;54.118;17.948;2022-10-22T08:18:54;8.90;99.90
18593;DHT22;9426;54.118;17.948;2022-10-22T08:24:18;8.80;99.90
18593;DHT22;9426;54.118;17.948;2022-10-22T08:29:41;8.90;99.90
18593;DHT22;9426;54.118;17.948;2022-10-22T08:35:06;9.00;99.90
18593;DHT22;9426;54.118;17.948;2022-10-22T08:40:32;9.20;99.90
18593;DHT22;9426;54.118;17.948;2022-10-22T08:46:06;9.40;99.90
18593;DHT22;9426;54.118;17.948;2022-10-22T08:51:35;9.30;99.90
18593;DHT22;9426;54.118;17.948;2022-10-22T08:57:13;9.50;99.90
18593;DHT22;9426;54.118;17.948;2022-10-22T09:02:46;9.40;99.90
18593;DHT22;9426;54.118;17.948;2022-10-22T09:08:16;9.50;99.90
18593;DHT22;9426;54.118;17.948;2022-10-22T09:13:43;9.50;99.90
18593;DHT22;9426;54.118;17.948;2022-10-22T09:19:15;9.60;99.90
18593;DHT22;9426;54.118;17.948;2022-10-22T09:24:45;9.60;99.90
18593;DHT22;9426;54.118;17.948;2022-10-22T09:30:15;9.70;99.90
18593;DHT22;9426;54.118;17.948;2022-10-22T09:35:52;9.70;99.90
18593;DHT22;9426;54.118;17.948;2022-10-22T09:41:19;9.80;99.90
18593;DHT22;9426;54.118;17.948;2022-10-22T09:46:46;10.00;99.90
18593;DHT22;9426;54.118;17.948;2022-10-22T09:52:25;10.10;99.90
18593;DHT22;9426;54.118;17.948;2022-10-22T09:57:54;10.40;99.90
18593;DHT22;9426;54.118;17.948;2022-10-22T10:03:20;10.50;99.90
18593;DHT22;9426;54.118;17.948;2022-10-22T10:08:45;11.20;99.90
18593;DHT22;9426;54.118;17.948;2022-10-22T10:14:15;11.30;99.90
18593;DHT22;9426;54.118;17.948;2022-10-22T10:19:55;11.10;99.90
18593;DHT22;9426;54.118;17.948;2022-10-22T10:25:41;11.30;99.90
18593;DHT22;9426;54.118;17.948;2022-10-22T10:31:16;11.40;99.90
18593;DHT22;9426;54.118;17.948;2022-10-22T10:36:52;11.50;99.90
18593;DHT22;9426;54.118;17.948;2022-10-22T10:42:21;11.50;99.90
18593;DHT22;9426;54.118;17.948;2022-10-22T10:48:05;11.60;99.90
18593;DHT22;9426;54.118;17.948;2022-10-22T10:53:45;11.90;99.90
